Time;durP1;ratioP1;P1;durP2;ratioP2;P2;SDS_P1;SDS_P2;PMS_P1;PMS_P2;Temp;Humidity;BMP_temperature;BMP_pressure;BME280_temperature;BME280_humidity;BME280_pressure;Samples;Min_cycle;Max_cycle;Signal;HPM_P1;HPM_P2
2023/09/06 00:01:09;;;;;;;;;;;;;;;24.23;nan;102241.78;5023562;28;19952;-84
2023/09/06 00:03:36;;;;;;;;;;;;;;;24.20;nan;102237.75;5021325;28;19921;-84
2023/09/06 00:06:03;;;;;;;;;;;;;;;24.19;nan;102240.78;5020671;28;20555;-84
2023/09/06 00:08:28;;;;;;;;;;;;;;;24.16;nan;102236.72;5023692;28;19920;-84
2023/09/06 00:10:53;;;;;;;;;;;;;;;24.16;nan;102242.22;5020129;28;20421;-84
2023/09/06 00:13:20;;;;;;;;;;;;;;;24.13;nan;102233.78;5018171;28;19960;-83
2023/09/06 00:15:45;;;;;;;;;;;;;;;24.07;nan;102233.91;5018707;28;19921;-84
2023/09/06 00:18:11;;;;;;;;;;;;;;;24.00;nan;102233.47;5022874;28;19952;-84
2023/09/06 00:20:38;;;;;;;;;;;;;;;23.93;nan;102235.81;5023097;28;20022;-83
2023/09/06 00:23:08;;;;;;;;;;;;;;;23.87;nan;102236.19;5019392;28;20462;-84
2023/09/06 00:25:34;;;;;;;;;;;;;;;23.79;nan;102233.03;5017480;28;19929;-83
2023/09/06 00:28:03;;;;;;;;;;;;;;;23.76;nan;102227.38;5031758;28;20106;-84
2023/09/06 00:30:29;;;;;;;;;;;;;;;23.73;nan;102231.53;5023504;28;20112;-84
2023/09/06 00:32:54;;;;;;;;;;;;;;;23.72;nan;102234.56;5021944;28;20441;-84
2023/09/06 00:35:20;;;;;;;;;;;;;;;23.68;nan;102237.06;5022126;28;19924;-84
2023/09/06 00:37:46;;;;;;;;;;;;;;;23.67;nan;102235.44;5019934;28;20308;-83
2023/09/06 00:40:17;;;;;;;;;;;;;;;23.65;nan;102234.94;5016497;28;19925;-84
2023/09/06 00:42:45;;;;;;;;;;;;;;;23.63;nan;102237.16;5018116;28;20638;-84
2023/09/06 00:45:10;;;;;;;;;;;;;;;23.61;nan;102235.84;5017128;28;19921;-84
2023/09/06 00:47:36;;;;;;;;;;;;;;;23.56;nan;102242.19;5022834;28;19962;-83
2023/09/06 00:50:02;;;;;;;;;;;;;;;23.51;nan;102243.06;5019674;28;19938;-84
2023/09/06 00:52:27;;;;;;;;;;;;;;;23.48;nan;102248.31;5021450;28;19917;-83
2023/09/06 00:54:53;;;;;;;;;;;;;;;23.46;nan;102239.59;5017970;28;19951;-83
2023/09/06 00:57:18;;;;;;;;;;;;;;;23.44;nan;102241.84;5022296;28;19982;-83
2023/09/06 00:59:44;;;;;;;;;;;;;;;23.42;nan;102247.59;5021432;28;19917;-84
2023/09/06 01:02:09;;;;;;;;;;;;;;;23.42;nan;102249.53;5020928;28;19925;-84
2023/09/06 01:04:35;;;;;;;;;;;;;;;23.39;nan;102242.75;5017448;28;20408;-82
2023/09/06 01:07:02;;;;;;;;;;;;;;;23.40;nan;102240.81;5018408;28;20166;-84
2023/09/06 01:09:29;;;;;;;;;;;;;;;23.38;nan;102248.50;5016613;28;19925;-84
2023/09/06 01:11:55;;;;;;;;;;;;;;;23.38;nan;102248.50;5017153;28;19926;-84
2023/09/06 01:14:20;;;;;;;;;;;;;;;23.35;nan;102240.91;5019178;28;19917;-83
2023/09/06 01:16:47;;;;;;;;;;;;;;;23.34;nan;102237.34;5020753;28;19921;-83
2023/09/06 01:19:14;;;;;;;;;;;;;;;23.28;nan;102248.66;5023175;28;19918;-84
2023/09/06 01:21:49;;;;;;;;;;;;;;;23.23;nan;102246.81;5022756;28;19943;-84
2023/09/06 01:24:15;;;;;;;;;;;;;;;23.18;nan;102244.97;5017970;28;19932;-83
2023/09/06 01:26:41;;;;;;;;;;;;;;;23.13;nan;102250.50;5013207;28;19933;-83
2023/09/06 01:29:07;;;;;;;;;;;;;;;23.08;nan;102245.13;5018952;28;19918;-83
2023/09/06 01:31:32;;;;;;;;;;;;;;;23.04;nan;102248.75;5018605;28;19917;-84
2023/09/06 01:33:57;;;;;;;;;;;;;;;23.01;nan;102249.34;5018067;28;19928;-84
2023/09/06 01:36:23;;;;;;;;;;;;;;;22.99;nan;102259.78;5020287;28;20297;-83
2023/09/06 01:38:51;;;;;;;;;;;;;;;23.00;nan;102248.53;5019288;28;19970;-84
2023/09/06 01:41:16;;;;;;;;;;;;;;;22.98;nan;102245.28;5031078;28;20368;-84
2023/09/06 01:43:42;;;;;;;;;;;;;;;22.96;nan;102252.94;5016587;28;19949;-83
2023/09/06 01:46:07;;;;;;;;;;;;;;;22.95;nan;102261.44;5019968;28;20293;-83
2023/09/06 01:48:32;;;;;;;;;;;;;;;22.90;nan;102256.88;5020706;28;19952;-83
2023/09/06 01:50:58;;;;;;;;;;;;;;;22.89;nan;102263.44;5016202;28;20016;-84
2023/09/06 01:53:23;;;;;;;;;;;;;;;22.87;nan;102252.81;5020483;28;19917;-83
2023/09/06 01:55:49;;;;;;;;;;;;;;;22.84;nan;102250.69;5015722;28;19917;-83
2023/09/06 01:58:14;;;;;;;;;;;;;;;22.82;nan;102252.06;5016352;28;19918;-83
2023/09/06 02:00:39;;;;;;;;;;;;;;;22.79;nan;102263.53;5019854;28;20386;-83
2023/09/06 02:03:11;;;;;;;;;;;;;;;22.76;nan;102259.47;5020252;28;19925;-84
2023/09/06 02:05:36;;;;;;;;;;;;;;;22.72;nan;102257.63;5022408;28;20099;-84
2023/09/06 02:08:03;;;;;;;;;;;;;;;22.68;nan;102256.59;5018188;28;19925;-83
2023/09/06 02:10:29;;;;;;;;;;;;;;;22.67;nan;102257.72;5020176;28;19921;-83
2023/09/06 02:12:54;;;;;;;;;;;;;;;22.65;nan;102265.38;5017012;28;19922;-83
2023/09/06 02:15:19;;;;;;;;;;;;;;;22.64;nan;102261.84;5017927;28;20331;-84
2023/09/06 02:17:45;;;;;;;;;;;;;;;22.64;nan;102266.50;5015716;28;20008;-83
2023/09/06 02:20:17;;;;;;;;;;;;;;;22.61;nan;102259.66;5017454;28;19924;-84
2023/09/06 02:22:52;;;;;;;;;;;;;;;22.58;nan;102255.63;5014201;28;20029;-83
2023/09/06 02:25:20;;;;;;;;;;;;;;;22.57;nan;102255.91;5012089;28;19925;-83
2023/09/06 02:27:46;;;;;;;;;;;;;;;22.55;nan;102266.31;5012175;28;19917;-83
2023/09/06 02:30:11;;;;;;;;;;;;;;;22.51;nan;102268.81;5018486;28;20307;-83
2023/09/06 02:32:37;;;;;;;;;;;;;;;22.46;nan;102268.91;5020486;28;19936;-84
2023/09/06 02:35:02;;;;;;;;;;;;;;;22.42;nan;102269.75;5017476;28;19999;-83
2023/09/06 02:37:28;;;;;;;;;;;;;;;22.39;nan;102275.78;5018328;28;19947;-83
2023/09/06 02:39:53;;;;;;;;;;;;;;;22.37;nan;102273.34;5018710;28;19921;-83
2023/09/06 02:42:22;;;;;;;;;;;;;;;22.33;nan;102272.31;5018535;28;20329;-83
2023/09/06 02:44:47;;;;;;;;;;;;;;;22.31;nan;102269.06;5020088;28;19952;-83
2023/09/06 02:47:15;;;;;;;;;;;;;;;22.28;nan;102264.19;5019037;28;20007;-83
2023/09/06 02:49:43;;;;;;;;;;;;;;;22.24;nan;102271.31;5022261;28;19925;-83
2023/09/06 02:52:20;;;;;;;;;;;;;;;22.19;nan;102271.38;5019852;28;19921;-83
2023/09/06 02:54:48;;;;;;;;;;;;;;;22.16;nan;102269.22;5018319;28;19963;-84
2023/09/06 02:57:16;;;;;;;;;;;;;;;22.14;nan;102271.44;5019481;28;19926;-83
2023/09/06 02:59:41;;;;;;;;;;;;;;;22.14;nan;102276.91;5020779;28;19917;-83
2023/09/06 03:02:07;;;;;;;;;;;;;;;22.10;nan;102273.94;5023006;28;19928;-83
2023/09/06 03:04:37;;;;;;;;;;;;;;;22.10;nan;102273.13;5026239;28;19924;-84
2023/09/06 03:07:07;;;;;;;;;;;;;;;22.08;nan;102275.31;5022440;28;19933;-83
2023/09/06 03:09:35;;;;;;;;;;;;;;;22.05;nan;102273.16;5020018;28;19979;-83
2023/09/06 03:12:07;;;;;;;;;;;;;;;22.00;nan;102274.00;5017025;28;19928;-84
2023/09/06 03:14:33;;;;;;;;;;;;;;;21.95;nan;102277.59;5022325;28;20008;-84
2023/09/06 03:17:08;;;;;;;;;;;;;;;21.91;nan;102282.00;5017869;28;20492;-83
2023/09/06 03:19:33;;;;;;;;;;;;;;;21.86;nan;102279.31;5025574;28;19924;-83
2023/09/06 03:22:06;;;;;;;;;;;;;;;21.85;nan;102277.69;5020384;28;20309;-84
2023/09/06 03:24:31;;;;;;;;;;;;;;;21.83;nan;102279.88;5019810;28;20191;-84
2023/09/06 03:26:58;;;;;;;;;;;;;;;21.84;nan;102283.41;5015039;28;21086;-83
2023/09/06 03:29:24;;;;;;;;;;;;;;;21.79;nan;102281.56;5018607;28;19925;-84
2023/09/06 03:31:53;;;;;;;;;;;;;;;21.76;nan;102286.78;5021941;28;19925;-83
2023/09/06 03:34:18;;;;;;;;;;;;;;;21.75;nan;102277.78;5021482;28;20046;-84
2023/09/06 03:36:46;;;;;;;;;;;;;;;21.74;nan;102283.53;5021562;28;19943;-83
2023/09/06 03:39:12;;;;;;;;;;;;;;;21.72;nan;102283.78;5019752;28;19917;-83
2023/09/06 03:41:38;;;;;;;;;;;;;;;21.70;nan;102291.44;5021196;28;19925;-83
2023/09/06 03:44:04;;;;;;;;;;;;;;;21.70;nan;102286.81;5019727;28;20757;-83
2023/09/06 03:46:29;;;;;;;;;;;;;;;21.68;nan;102293.66;5020311;28;20320;-83
2023/09/06 03:48:54;;;;;;;;;;;;;;;21.63;nan;102308.16;5015554;28;19921;-83
2023/09/06 03:51:20;;;;;;;;;;;;;;;21.58;nan;102305.47;5017789;28;20012;-83
2023/09/06 03:53:47;;;;;;;;;;;;;;;21.56;nan;102306.84;5017321;28;19917;-83
2023/09/06 03:56:14;;;;;;;;;;;;;;;21.54;nan;102309.84;5016399;28;19917;-84
2023/09/06 03:58:40;;;;;;;;;;;;;;;21.55;nan;102310.69;5020699;28;20000;-83
2023/09/06 04:01:10;;;;;;;;;;;;;;;21.53;nan;102312.84;5020295;28;19928;-84
2023/09/06 04:03:38;;;;;;;;;;;;;;;21.53;nan;102310.94;5020166;28;20429;-83
2023/09/06 04:06:03;;;;;;;;;;;;;;;21.53;nan;102310.94;5017748;28;19925;-84
2023/09/06 04:08:29;;;;;;;;;;;;;;;21.52;nan;102308.50;5018147;28;19932;-83
2023/09/06 04:10:54;;;;;;;;;;;;;;;21.53;nan;102312.84;5015314;28;19913;-84
2023/09/06 04:13:19;;;;;;;;;;;;;;;21.51;nan;102313.13;5022076;28;19917;-84
2023/09/06 04:15:45;;;;;;;;;;;;;;;21.48;nan;102316.44;5018356;28;19917;-83
2023/09/06 04:18:11;;;;;;;;;;;;;;;21.47;nan;102317.53;5020102;28;19925;-84
2023/09/06 04:20:36;;;;;;;;;;;;;;;21.44;nan;102320.03;5024603;28;19920;-83
2023/09/06 04:23:05;;;;;;;;;;;;;;;21.40;nan;102306.97;5017551;28;19925;-84
2023/09/06 04:25:33;;;;;;;;;;;;;;;21.33;nan;102303.72;5014000;28;19971;-83
2023/09/06 04:27:59;;;;;;;;;;;;;;;21.28;nan;102311.94;5018351;28;19999;-83
2023/09/06 04:30:28;;;;;;;;;;;;;;;21.26;nan;102303.22;5024602;28;19999;-83
2023/09/06 04:32:53;;;;;;;;;;;;;;;21.23;nan;102302.94;5023883;28;19917;-83
2023/09/06 04:35:19;;;;;;;;;;;;;;;21.22;nan;102301.31;5021361;28;20002;-84
2023/09/06 04:37:44;;;;;;;;;;;;;;;21.22;nan;102301.31;5024118;28;20342;-83
2023/09/06 04:40:11;;;;;;;;;;;;;;;21.25;nan;102308.97;5020075;28;19975;-84
2023/09/06 04:42:39;;;;;;;;;;;;;;;21.30;nan;102317.09;5022790;28;19924;-84
2023/09/06 04:45:05;;;;;;;;;;;;;;;21.36;nan;102313.25;5017201;28;19929;-84
2023/09/06 04:47:30;;;;;;;;;;;;;;;21.40;nan;102320.59;5019248;28;19925;-83
2023/09/06 04:49:56;;;;;;;;;;;;;;;21.45;nan;102308.00;5020831;28;19929;-83
2023/09/06 04:52:22;;;;;;;;;;;;;;;21.51;nan;102309.59;5019637;28;20348;-83
2023/09/06 04:54:47;;;;;;;;;;;;;;;21.57;nan;102311.22;5019453;28;19963;-82
2023/09/06 04:57:13;;;;;;;;;;;;;;;21.63;nan;102318.25;5015517;28;19960;-83
2023/09/06 04:59:39;;;;;;;;;;;;;;;21.65;nan;102321.50;5021852;28;19921;-83
2023/09/06 05:02:04;;;;;;;;;;;;;;;21.65;nan;102322.31;5017060;28;20411;-83
2023/09/06 05:04:30;;;;;;;;;;;;;;;21.63;nan;102331.88;5021985;28;20071;-84
2023/09/06 05:06:55;;;;;;;;;;;;;;;21.63;nan;102326.44;5020001;28;19925;-83
2023/09/06 05:09:21;;;;;;;;;;;;;;;21.64;nan;102326.13;5016689;28;19967;-83
2023/09/06 05:11:47;;;;;;;;;;;;;;;21.71;nan;102325.81;5019273;28;20826;-83
2023/09/06 05:14:12;;;;;;;;;;;;;;;21.81;nan;102323.00;5019775;28;20308;-83
2023/09/06 05:16:37;;;;;;;;;;;;;;;21.90;nan;102321.31;5019088;28;20016;-84
2023/09/06 05:19:03;;;;;;;;;;;;;;;21.98;nan;102323.41;5021882;28;19925;-83
2023/09/06 05:21:28;;;;;;;;;;;;;;;22.06;nan;102326.63;5022580;28;20007;-84
2023/09/06 05:23:53;;;;;;;;;;;;;;;22.13;nan;102329.88;5018853;28;20279;-84
2023/09/06 05:26:20;;;;;;;;;;;;;;;22.18;nan;102329.81;5014049;28;20411;-83
2023/09/06 05:28:47;;;;;;;;;;;;;;;22.22;nan;102328.13;5020304;28;19917;-83
2023/09/06 05:31:12;;;;;;;;;;;;;;;22.27;nan;102328.09;5018609;28;19964;-84
2023/09/06 05:33:37;;;;;;;;;;;;;;;22.33;nan;102332.38;5021077;28;19971;-83
2023/09/06 05:36:03;;;;;;;;;;;;;;;22.41;nan;102329.00;5018348;28;20340;-84
2023/09/06 05:38:28;;;;;;;;;;;;;;;22.48;nan;102336.88;5017481;28;19922;-84
2023/09/06 05:40:53;;;;;;;;;;;;;;;22.57;nan;102344.13;5020781;28;19917;-83
2023/09/06 05:43:18;;;;;;;;;;;;;;;22.70;nan;102345.38;5021137;28;19917;-83
2023/09/06 05:45:46;;;;;;;;;;;;;;;22.81;nan;102349.59;5020004;28;21361;-83
2023/09/06 05:48:12;;;;;;;;;;;;;;;22.91;nan;102349.50;5017076;28;20737;-83
2023/09/06 05:50:37;;;;;;;;;;;;;;;22.99;nan;102349.97;5021801;28;19921;-83
2023/09/06 05:53:02;;;;;;;;;;;;;;;23.08;nan;102348.19;5018942;28;20102;-83
2023/09/06 05:55:28;;;;;;;;;;;;;;;23.17;nan;102346.44;5010583;28;20071;-84
2023/09/06 05:57:53;;;;;;;;;;;;;;;23.25;nan;102350.44;5015276;28;19943;-83
2023/09/06 06:00:21;;;;;;;;;;;;;;;23.32;nan;102359.06;5013641;28;21268;-83
2023/09/06 06:02:48;;;;;;;;;;;;;;;23.40;nan;102356.50;5018636;28;20377;-83
2023/09/06 06:05:14;;;;;;;;;;;;;;;23.49;nan;102362.91;5011609;28;19921;-84
2023/09/06 06:07:40;;;;;;;;;;;;;;;23.58;nan;102363.09;5016230;28;19955;-83
2023/09/06 06:10:12;;;;;;;;;;;;;;;23.69;nan;102366.47;5015272;28;20301;-84
2023/09/06 06:12:38;;;;;;;;;;;;;;;23.81;nan;102359.44;5016548;28;19917;-84
2023/09/06 06:15:05;;;;;;;;;;;;;;;23.93;nan;102364.47;5015642;28;19924;-83
2023/09/06 06:17:30;;;;;;;;;;;;;;;24.05;nan;102366.72;5020336;28;20385;-84
2023/09/06 06:19:55;;;;;;;;;;;;;;;24.18;nan;102368.69;5019495;28;19940;-84
2023/09/06 06:22:20;;;;;;;;;;;;;;;24.29;nan;102363.88;5023278;28;19917;-84
2023/09/06 06:24:46;;;;;;;;;;;;;;;24.41;nan;102369.66;5016531;28;19924;-84
2023/09/06 06:27:12;;;;;;;;;;;;;;;24.50;nan;102365.13;5016470;28;20319;-84
2023/09/06 06:29:37;;;;;;;;;;;;;;;24.57;nan;102367.44;5017231;28;20492;-84
2023/09/06 06:32:02;;;;;;;;;;;;;;;24.60;nan;102364.13;5019184;28;20305;-84
2023/09/06 06:34:28;;;;;;;;;;;;;;;24.66;nan;102365.63;5018718;28;19948;-84
2023/09/06 06:36:53;;;;;;;;;;;;;;;24.79;nan;102366.78;5018102;28;19979;-83
2023/09/06 06:39:18;;;;;;;;;;;;;;;24.90;nan;102365.41;5015002;28;20007;-84
2023/09/06 06:41:44;;;;;;;;;;;;;;;25.03;nan;102374.78;5020193;28;19928;-84
2023/09/06 06:44:09;;;;;;;;;;;;;;;25.15;nan;102372.34;5016657;28;19922;-84
2023/09/06 06:46:37;;;;;;;;;;;;;;;25.26;nan;102366.31;5019312;28;20034;-84
2023/09/06 06:49:04;;;;;;;;;;;;;;;25.37;nan;102369.66;5015042;28;20310;-84
2023/09/06 06:51:38;;;;;;;;;;;;;;;25.45;nan;102368.91;5017680;28;19921;-84
2023/09/06 06:54:10;;;;;;;;;;;;;;;25.58;nan;102369.97;5015817;28;19928;-84
2023/09/06 06:56:36;;;;;;;;;;;;;;;25.76;nan;102373.72;5012904;28;19925;-84
2023/09/06 06:59:02;;;;;;;;;;;;;;;25.88;nan;102377.53;5019244;28;19921;-84
2023/09/06 07:01:28;;;;;;;;;;;;;;;26.05;nan;102376.81;5020340;28;19925;-85
2023/09/06 07:03:54;;;;;;;;;;;;;;;26.20;nan;102376.41;5016158;28;19928;-84
2023/09/06 07:06:20;;;;;;;;;;;;;;;26.38;nan;102376.53;5015720;28;20290;-84
2023/09/06 07:08:45;;;;;;;;;;;;;;;26.54;nan;102386.00;5018673;28;19928;-85
2023/09/06 07:11:11;;;;;;;;;;;;;;;26.72;nan;102389.63;5019108;28;19917;-84
2023/09/06 07:13:37;;;;;;;;;;;;;;;26.84;nan;102386.28;5021277;28;19972;-82
2023/09/06 07:16:03;;;;;;;;;;;;;;;26.99;nan;102391.34;5020186;28;19917;-84
2023/09/06 07:18:28;;;;;;;;;;;;;;;27.17;nan;102390.28;5019213;28;19944;-85
2023/09/06 07:20:54;;;;;;;;;;;;;;;27.33;nan;102388.69;5022344;28;19921;-83
2023/09/06 07:23:19;;;;;;;;;;;;;;;27.48;nan;102387.41;5018255;28;19925;-85
2023/09/06 07:25:46;;;;;;;;;;;;;;;27.63;nan;102389.66;5014685;28;20291;-83
2023/09/06 07:28:12;;;;;;;;;;;;;;;27.72;nan;102389.69;5013677;28;20262;-83
2023/09/06 07:30:38;;;;;;;;;;;;;;;27.82;nan;102394.03;5023377;28;19948;-84
2023/09/06 07:33:03;;;;;;;;;;;;;;;27.94;nan;102392.25;5015505;28;19947;-83
2023/09/06 07:35:28;;;;;;;;;;;;;;;28.08;nan;102394.00;5019058;28;19921;-83
2023/09/06 07:37:54;;;;;;;;;;;;;;;28.21;nan;102399.34;5020807;28;19925;-83
2023/09/06 07:40:20;;;;;;;;;;;;;;;28.36;nan;102392.47;5018944;28;19920;-83
2023/09/06 07:42:45;;;;;;;;;;;;;;;28.50;nan;102400.56;5021158;28;19917;-83
2023/09/06 07:45:10;;;;;;;;;;;;;;;28.63;nan;102401.47;5014399;28;19925;-83
2023/09/06 07:47:36;;;;;;;;;;;;;;;28.73;nan;102392.84;5021217;28;19917;-85
2023/09/06 07:50:01;;;;;;;;;;;;;;;28.87;nan;102394.25;5018764;28;20376;-84
2023/09/06 07:52:26;;;;;;;;;;;;;;;29.05;nan;102400.47;5016046;28;19921;-83
2023/09/06 07:54:52;;;;;;;;;;;;;;;29.18;nan;102399.41;5020862;28;19917;-83
2023/09/06 07:57:17;;;;;;;;;;;;;;;29.35;nan;102400.44;5015159;28;21456;-85
2023/09/06 07:59:42;;;;;;;;;;;;;;;29.50;nan;102401.81;5019896;28;19924;-85
2023/09/06 08:02:08;;;;;;;;;;;;;;;29.65;nan;102401.22;5019789;28;19971;-84
2023/09/06 08:04:33;;;;;;;;;;;;;;;29.83;nan;102408.19;5019626;28;20329;-84
2023/09/06 08:06:59;;;;;;;;;;;;;;;30.02;nan;102404.94;5019674;28;19969;-85
2023/09/06 08:09:24;;;;;;;;;;;;;;;30.20;nan;102400.06;5017496;28;19921;-85
2023/09/06 08:11:49;;;;;;;;;;;;;;;30.40;nan;102403.88;5020771;28;19917;-85
2023/09/06 08:14:15;;;;;;;;;;;;;;;30.54;nan;102405.19;5024404;28;19917;-84
2023/09/06 08:16:40;;;;;;;;;;;;;;;30.72;nan;102405.00;5022243;28;21049;-84
2023/09/06 08:19:05;;;;;;;;;;;;;;;30.87;nan;102407.03;5023217;28;19932;-84
2023/09/06 08:21:31;;;;;;;;;;;;;;;31.04;nan;102400.44;5017678;28;19928;-85
2023/09/06 08:23:56;;;;;;;;;;;;;;;31.17;nan;102405.66;5017608;28;20625;-85
2023/09/06 08:26:22;;;;;;;;;;;;;;;31.30;nan;102405.66;5021746;28;20400;-84
2023/09/06 08:28:47;;;;;;;;;;;;;;;31.46;nan;102406.53;5018415;28;19967;-85
2023/09/06 08:31:12;;;;;;;;;;;;;;;31.57;nan;102413.97;5013273;28;20695;-84
2023/09/06 08:33:38;;;;;;;;;;;;;;;31.69;nan;102409.56;5022814;28;19948;-84
2023/09/06 08:36:03;;;;;;;;;;;;;;;31.83;nan;102418.31;5019352;28;21641;-85
2023/09/06 08:38:28;;;;;;;;;;;;;;;31.96;nan;102416.25;5022950;28;19935;-85
2023/09/06 08:40:53;;;;;;;;;;;;;;;32.09;nan;102415.03;5018012;28;20324;-85
2023/09/06 08:43:19;;;;;;;;;;;;;;;32.25;nan;102412.28;5019633;28;20317;-85
2023/09/06 08:45:47;;;;;;;;;;;;;;;32.45;nan;102409.28;5022203;28;20059;-85
2023/09/06 08:48:12;;;;;;;;;;;;;;;32.62;nan;102408.13;5016257;28;19998;-85
2023/09/06 08:50:38;;;;;;;;;;;;;;;32.80;nan;102410.53;5018265;28;20381;-85
2023/09/06 08:53:04;;;;;;;;;;;;;;;32.98;nan;102403.44;5022193;28;19917;-85
2023/09/06 08:55:30;;;;;;;;;;;;;;;33.11;nan;102404.13;5017888;28;19925;-84
2023/09/06 08:57:56;;;;;;;;;;;;;;;33.15;nan;102400.25;5018269;28;19944;-85
2023/09/06 09:00:23;;;;;;;;;;;;;;;33.24;nan;102402.84;5019917;28;19991;-85
2023/09/06 09:02:49;;;;;;;;;;;;;;;33.29;nan;102410.91;5021572;28;20088;-85
2023/09/06 09:05:15;;;;;;;;;;;;;;;33.33;nan;102400.69;5019992;28;19929;-85
2023/09/06 09:07:40;;;;;;;;;;;;;;;33.41;nan;102405.25;5021108;28;20368;-85
2023/09/06 09:10:09;;;;;;;;;;;;;;;33.52;nan;102406.25;5020988;28;19920;-85
2023/09/06 09:12:35;;;;;;;;;;;;;;;33.63;nan;102406.47;5021598;28;20390;-86
2023/09/06 09:15:02;;;;;;;;;;;;;;;33.63;nan;102403.69;5018280;28;19971;-85
2023/09/06 09:17:28;;;;;;;;;;;;;;;33.72;nan;102412.59;5016392;28;20007;-84
2023/09/06 09:19:55;;;;;;;;;;;;;;;33.84;nan;102412.47;5019278;28;20361;-83
2023/09/06 09:22:24;;;;;;;;;;;;;;;33.90;nan;102402.66;5020187;28;19925;-84
2023/09/06 09:24:49;;;;;;;;;;;;;;;34.02;nan;102403.69;5021563;28;19921;-84
2023/09/06 09:27:18;;;;;;;;;;;;;;;34.19;nan;102405.97;5007678;28;20382;-84
2023/09/06 09:29:44;;;;;;;;;;;;;;;34.35;nan;102408.63;5021962;28;19917;-84
2023/09/06 09:32:11;;;;;;;;;;;;;;;34.46;nan;102404.88;5018031;28;20019;-85
2023/09/06 09:34:36;;;;;;;;;;;;;;;34.56;nan;102409.03;5018358;28;20580;-85
2023/09/06 09:37:02;;;;;;;;;;;;;;;34.70;nan;102403.69;5017325;28;19925;-85
2023/09/06 09:39:27;;;;;;;;;;;;;;;34.72;nan;102420.00;5015295;28;19917;-86
2023/09/06 09:41:57;;;;;;;;;;;;;;;34.64;nan;102410.72;5019562;28;19923;-85
2023/09/06 09:44:22;;;;;;;;;;;;;;;34.58;nan;102411.44;5016369;28;19961;-85
2023/09/06 09:46:48;;;;;;;;;;;;;;;34.62;nan;102406.72;5020041;28;20479;-85
2023/09/06 09:49:15;;;;;;;;;;;;;;;34.78;nan;102410.16;5014863;28;20389;-85
2023/09/06 09:51:40;;;;;;;;;;;;;;;34.99;nan;102416.06;5016368;28;19921;-85
2023/09/06 09:54:07;;;;;;;;;;;;;;;35.17;nan;102409.94;5034092;28;19923;-85
2023/09/06 09:56:33;;;;;;;;;;;;;;;35.22;nan;102406.84;5016558;28;19925;-85
2023/09/06 09:59:00;;;;;;;;;;;;;;;35.34;nan;102401.03;5019519;28;20104;-85
2023/09/06 10:01:27;;;;;;;;;;;;;;;35.55;nan;102409.69;5018705;28;19960;-85
2023/09/06 10:03:55;;;;;;;;;;;;;;;35.62;nan;102398.63;5016311;28;20396;-85
2023/09/06 10:06:22;;;;;;;;;;;;;;;35.73;nan;102396.75;5018595;28;19968;-85
2023/09/06 10:08:47;;;;;;;;;;;;;;;35.81;nan;102399.63;5018527;28;19917;-85
2023/09/06 10:11:14;;;;;;;;;;;;;;;35.88;nan;102394.13;5017150;28;19925;-86
2023/09/06 10:13:39;;;;;;;;;;;;;;;35.98;nan;102405.41;5018021;28;19922;-86
2023/09/06 10:16:06;;;;;;;;;;;;;;;35.94;nan;102404.59;5014582;28;19967;-86
2023/09/06 10:18:32;;;;;;;;;;;;;;;35.86;nan;102404.88;5016399;28;20395;-85
2023/09/06 10:20:58;;;;;;;;;;;;;;;35.86;nan;102402.88;5033710;28;20027;-85
2023/09/06 10:23:23;;;;;;;;;;;;;;;36.02;nan;102399.88;5016248;28;20394;-85
2023/09/06 10:25:49;;;;;;;;;;;;;;;36.21;nan;102408.03;5019268;28;20439;-85
2023/09/06 10:28:19;;;;;;;;;;;;;;;36.33;nan;102404.19;5012558;28;19926;-85
2023/09/06 10:30:44;;;;;;;;;;;;;;;36.49;nan;102401.91;5021463;28;19962;-85
2023/09/06 10:33:11;;;;;;;;;;;;;;;36.67;nan;102407.63;5013999;28;20015;-86
2023/09/06 10:35:42;;;;;;;;;;;;;;;36.61;nan;102409.97;5017207;28;19917;-85
2023/09/06 10:38:10;;;;;;;;;;;;;;;36.48;nan;102405.91;5014132;28;19987;-86
2023/09/06 10:40:51;;;;;;;;;;;;;;;36.51;nan;102407.13;5020527;28;19924;-86
2023/09/06 10:43:20;;;;;;;;;;;;;;;36.52;nan;102412.31;5014339;28;19917;-86
2023/09/06 10:46:18;;;;;;;;;;;;;;;36.52;nan;102409.50;5016718;28;20309;-86
2023/09/06 10:49:02;;;;;;;;;;;;;;;36.73;nan;102402.47;4999449;28;19964;-85
2023/09/06 10:51:27;;;;;;;;;;;;;;;36.90;nan;102404.63;5017878;28;19917;-86
2023/09/06 10:53:52;;;;;;;;;;;;;;;37.11;nan;102403.94;5019876;28;19936;-85
2023/09/06 10:56:26;;;;;;;;;;;;;;;37.32;nan;102406.84;5018312;28;20455;-85
2023/09/06 10:58:54;;;;;;;;;;;;;;;37.39;nan;102403.31;5010746;28;20424;-85
2023/09/06 11:01:20;;;;;;;;;;;;;;;37.33;nan;102405.66;5014988;28;19921;-86
2023/09/06 11:03:51;;;;;;;;;;;;;;;37.23;nan;102403.59;5014911;28;19924;-85
2023/09/06 11:06:18;;;;;;;;;;;;;;;37.22;nan;102405.59;5020211;28;20463;-86
2023/09/06 11:08:46;;;;;;;;;;;;;;;37.37;nan;102412.09;5020642;28;19943;-86
2023/09/06 11:11:13;;;;;;;;;;;;;;;37.45;nan;102402.53;5017241;28;20503;-85
2023/09/06 11:13:40;;;;;;;;;;;;;;;37.56;nan;102398.97;5016254;28;20008;-85
2023/09/06 11:16:10;;;;;;;;;;;;;;;37.76;nan;102397.47;5024388;28;19924;-85
2023/09/06 11:18:50;;;;;;;;;;;;;;;37.97;nan;102394.69;5023426;28;20216;-85
2023/09/06 11:21:20;;;;;;;;;;;;;;;38.18;nan;102393.09;5019977;28;19917;-85
2023/09/06 11:23:49;;;;;;;;;;;;;;;38.37;nan;102396.34;5019177;28;19944;-85
2023/09/06 11:26:15;;;;;;;;;;;;;;;38.50;nan;102393.94;5022944;28;20378;-86
2023/09/06 11:28:42;;;;;;;;;;;;;;;38.48;nan;102392.75;5021343;28;19996;-86
2023/09/06 11:31:25;;;;;;;;;;;;;;;38.36;nan;102388.34;5016281;28;20396;-85
2023/09/06 11:33:55;;;;;;;;;;;;;;;38.48;nan;102385.13;5014564;28;19971;-85
2023/09/06 11:36:21;;;;;;;;;;;;;;;38.59;nan;102388.72;5016697;28;20414;-85
2023/09/06 11:38:47;;;;;;;;;;;;;;;38.67;nan;102387.53;5021291;28;20373;-86
2023/09/06 11:41:12;;;;;;;;;;;;;;;38.61;nan;102379.94;5014339;28;19991;-86
2023/09/06 11:43:42;;;;;;;;;;;;;;;38.46;nan;102381.16;5017158;28;19927;-85
2023/09/06 11:46:09;;;;;;;;;;;;;;;38.39;nan;102379.13;5015799;28;19929;-85
2023/09/06 11:48:35;;;;;;;;;;;;;;;38.46;nan;102372.75;5019335;28;20135;-85
2023/09/06 11:51:12;;;;;;;;;;;;;;;38.65;nan;102384.34;5014094;28;21002;-85
2023/09/06 11:53:43;;;;;;;;;;;;;;;38.72;nan;102372.31;5018643;28;20266;-84
2023/09/06 11:56:11;;;;;;;;;;;;;;;38.76;nan;102377.91;5017253;28;20431;-85
2023/09/06 11:58:42;;;;;;;;;;;;;;;38.86;nan;102368.69;5013562;28;20321;-85
2023/09/06 12:01:08;;;;;;;;;;;;;;;39.01;nan;102377.84;5020579;28;20538;-86
2023/09/06 12:03:35;;;;;;;;;;;;;;;39.06;nan;102367.00;5015118;28;20004;-86
2023/09/06 12:06:00;;;;;;;;;;;;;;;39.04;nan;102360.22;5017241;28;20733;-85
2023/09/06 12:08:27;;;;;;;;;;;;;;;39.11;nan;102358.22;5019366;28;19964;-85
2023/09/06 12:10:58;;;;;;;;;;;;;;;39.14;nan;102360.22;5016609;28;20400;-85
2023/09/06 12:13:27;;;;;;;;;;;;;;;39.12;nan;102359.81;5020210;28;20388;-85
2023/09/06 12:15:52;;;;;;;;;;;;;;;39.25;nan;102360.94;5014366;28;20004;-85
2023/09/06 12:18:18;;;;;;;;;;;;;;;39.47;nan;102355.22;5021123;28;19925;-86
2023/09/06 12:20:44;;;;;;;;;;;;;;;39.64;nan;102357.16;5019248;28;19917;-84
2023/09/06 12:23:09;;;;;;;;;;;;;;;39.85;nan;102357.00;5017948;28;19921;-85
2023/09/06 12:25:35;;;;;;;;;;;;;;;40.02;nan;102351.69;5020927;28;20296;-85
2023/09/06 12:28:01;;;;;;;;;;;;;;;40.13;nan;102350.41;5015662;28;20153;-84
2023/09/06 12:30:29;;;;;;;;;;;;;;;40.27;nan;102346.69;5016549;28;19921;-85
2023/09/06 12:32:55;;;;;;;;;;;;;;;40.43;nan;102346.94;5015397;28;19968;-84
2023/09/06 12:35:20;;;;;;;;;;;;;;;40.63;nan;102349.16;5018145;28;20019;-84
2023/09/06 12:37:46;;;;;;;;;;;;;;;40.78;nan;102342.16;5023165;28;19936;-85
2023/09/06 12:40:13;;;;;;;;;;;;;;;40.73;nan;102339.78;5014506;28;20444;-85
2023/09/06 12:42:45;;;;;;;;;;;;;;;40.71;nan;102336.59;5017793;28;19925;-85
2023/09/06 12:45:30;;;;;;;;;;;;;;;40.79;nan;102332.50;5020698;28;20051;-84
2023/09/06 12:47:57;;;;;;;;;;;;;;;41.01;nan;102333.88;5009994;28;20305;-84
2023/09/06 12:50:22;;;;;;;;;;;;;;;41.19;nan;102336.44;5021785;28;19920;-85
2023/09/06 12:52:48;;;;;;;;;;;;;;;41.28;nan;102333.13;5018280;28;19995;-84
2023/09/06 12:55:13;;;;;;;;;;;;;;;41.39;nan;102330.19;5013315;28;19925;-85